sensor_id;sensor_type;location;lat;lon;timestamp;P1;durP1;ratioP1;P2;durP2;ratioP2
44764;SDS011;30484;52.382;5.260;2023-08-24T00:00:33;10.63;;;4.38;;
44764;SDS011;30484;52.382;5.260;2023-08-24T00:03:01;12.75;;;4.05;;
44764;SDS011;30484;52.382;5.260;2023-08-24T00:05:32;10.10;;;3.83;;
44764;SDS011;30484;52.382;5.260;2023-08-24T00:08:03;10.65;;;3.97;;
44764;SDS011;30484;52.382;5.260;2023-08-24T00:10:32;11.10;;;4.35;;
44764;SDS011;30484;52.382;5.260;2023-08-24T00:13:01;10.20;;;4.85;;
44764;SDS011;30484;52.382;5.260;2023-08-24T00:15:30;8.70;;;4.63;;
44764;SDS011;30484;52.382;5.260;2023-08-24T00:18:00;9.02;;;4.88;;
44764;SDS011;30484;52.382;5.260;2023-08-24T00:20:29;10.73;;;4.95;;
44764;SDS011;30484;52.382;5.260;2023-08-24T00:22:59;10.57;;;4.78;;
44764;SDS011;30484;52.382;5.260;2023-08-24T00:25:27;13.98;;;5.50;;
44764;SDS011;30484;52.382;5.260;2023-08-24T00:27:56;10.25;;;5.10;;
44764;SDS011;30484;52.382;5.260;2023-08-24T00:30:25;11.35;;;5.32;;
44764;SDS011;30484;52.382;5.260;2023-08-24T00:32:54;15.43;;;5.50;;
44764;SDS011;30484;52.382;5.260;2023-08-24T00:35:23;13.93;;;5.50;;
44764;SDS011;30484;52.382;5.260;2023-08-24T00:37:51;12.75;;;4.95;;
44764;SDS011;30484;52.382;5.260;2023-08-24T00:40:20;16.42;;;5.40;;
44764;SDS011;30484;52.382;5.260;2023-08-24T00:42:48;14.13;;;5.32;;
44764;SDS011;30484;52.382;5.260;2023-08-24T00:45:17;11.60;;;5.40;;
44764;SDS011;30484;52.382;5.260;2023-08-24T00:47:46;11.68;;;5.10;;
44764;SDS011;30484;52.382;5.260;2023-08-24T00:50:17;15.70;;;5.28;;
44764;SDS011;30484;52.382;5.260;2023-08-24T00:52:47;11.43;;;4.57;;
44764;SDS011;30484;52.382;5.260;2023-08-24T00:55:16;10.23;;;4.90;;
44764;SDS011;30484;52.382;5.260;2023-08-24T00:57:45;12.80;;;5.18;;
44764;SDS011;30484;52.382;5.260;2023-08-24T01:00:14;9.32;;;4.97;;
44764;SDS011;30484;52.382;5.260;2023-08-24T01:02:43;9.48;;;4.70;;
44764;SDS011;30484;52.382;5.260;2023-08-24T01:05:12;10.57;;;5.00;;
44764;SDS011;30484;52.382;5.260;2023-08-24T01:07:42;14.82;;;5.18;;
44764;SDS011;30484;52.382;5.260;2023-08-24T01:10:10;14.02;;;4.78;;
44764;SDS011;30484;52.382;5.260;2023-08-24T01:12:42;13.25;;;4.78;;
44764;SDS011;30484;52.382;5.260;2023-08-24T01:15:26;7.60;;;4.40;;
44764;SDS011;30484;52.382;5.260;2023-08-24T01:18:03;11.50;;;5.55;;
44764;SDS011;30484;52.382;5.260;2023-08-24T01:20:36;14.02;;;5.22;;
44764;SDS011;30484;52.382;5.260;2023-08-24T01:23:09;9.32;;;5.47;;
44764;SDS011;30484;52.382;5.260;2023-08-24T01:25:51;17.45;;;7.60;;
44764;SDS011;30484;52.382;5.260;2023-08-24T01:28:22;8.70;;;4.70;;
44764;SDS011;30484;52.382;5.260;2023-08-24T01:30:51;10.07;;;5.55;;
44764;SDS011;30484;52.382;5.260;2023-08-24T01:33:21;18.92;;;8.27;;
44764;SDS011;30484;52.382;5.260;2023-08-24T01:35:50;14.20;;;6.05;;
44764;SDS011;30484;52.382;5.260;2023-08-24T01:38:18;15.68;;;6.30;;
44764;SDS011;30484;52.382;5.260;2023-08-24T01:40:49;11.68;;;5.97;;
44764;SDS011;30484;52.382;5.260;2023-08-24T01:43:29;18.58;;;7.13;;
44764;SDS011;30484;52.382;5.260;2023-08-24T01:46:09;14.20;;;6.97;;
44764;SDS011;30484;52.382;5.260;2023-08-24T01:48:45;13.25;;;6.72;;
44764;SDS011;30484;52.382;5.260;2023-08-24T01:51:14;19.23;;;7.47;;
44764;SDS011;30484;52.382;5.260;2023-08-24T01:53:45;20.23;;;7.63;;
44764;SDS011;30484;52.382;5.260;2023-08-24T01:56:14;13.85;;;7.60;;
44764;SDS011;30484;52.382;5.260;2023-08-24T01:58:45;16.05;;;8.45;;
44764;SDS011;30484;52.382;5.260;2023-08-24T02:01:14;16.55;;;8.45;;
44764;SDS011;30484;52.382;5.260;2023-08-24T02:03:42;15.27;;;7.90;;
44764;SDS011;30484;52.382;5.260;2023-08-24T02:06:14;15.40;;;8.35;;
44764;SDS011;30484;52.382;5.260;2023-08-24T02:08:45;14.45;;;8.35;;
44764;SDS011;30484;52.382;5.260;2023-08-24T02:11:14;14.63;;;7.85;;
44764;SDS011;30484;52.382;5.260;2023-08-24T02:13:43;17.17;;;8.48;;
44764;SDS011;30484;52.382;5.260;2023-08-24T02:16:12;17.63;;;8.25;;
44764;SDS011;30484;52.382;5.260;2023-08-24T02:18:44;18.45;;;9.82;;
44764;SDS011;30484;52.382;5.260;2023-08-24T02:21:15;18.67;;;9.85;;
44764;SDS011;30484;52.382;5.260;2023-08-24T02:23:44;20.13;;;9.80;;
44764;SDS011;30484;52.382;5.260;2023-08-24T02:26:12;17.90;;;10.65;;
44764;SDS011;30484;52.382;5.260;2023-08-24T02:28:43;17.30;;;9.73;;
44764;SDS011;30484;52.382;5.260;2023-08-24T02:31:12;15.68;;;10.23;;
44764;SDS011;30484;52.382;5.260;2023-08-24T02:33:42;17.08;;;10.77;;
44764;SDS011;30484;52.382;5.260;2023-08-24T02:36:11;16.50;;;10.60;;
44764;SDS011;30484;52.382;5.260;2023-08-24T02:38:39;12.90;;;9.40;;
44764;SDS011;30484;52.382;5.260;2023-08-24T02:41:08;21.63;;;11.30;;
44764;SDS011;30484;52.382;5.260;2023-08-24T02:43:37;16.38;;;10.10;;
44764;SDS011;30484;52.382;5.260;2023-08-24T02:46:07;19.60;;;10.48;;
44764;SDS011;30484;52.382;5.260;2023-08-24T02:48:38;16.52;;;10.70;;
44764;SDS011;30484;52.382;5.260;2023-08-24T02:51:07;21.58;;;10.85;;
44764;SDS011;30484;52.382;5.260;2023-08-24T02:53:36;20.67;;;11.43;;
44764;SDS011;30484;52.382;5.260;2023-08-24T02:56:04;16.67;;;11.20;;
44764;SDS011;30484;52.382;5.260;2023-08-24T02:58:33;18.45;;;11.10;;
44764;SDS011;30484;52.382;5.260;2023-08-24T03:01:04;22.40;;;11.38;;
44764;SDS011;30484;52.382;5.260;2023-08-24T03:03:33;19.25;;;10.80;;
44764;SDS011;30484;52.382;5.260;2023-08-24T03:06:04;15.73;;;10.98;;
44764;SDS011;30484;52.382;5.260;2023-08-24T03:08:35;17.38;;;10.70;;
44764;SDS011;30484;52.382;5.260;2023-08-24T03:11:03;22.33;;;11.15;;
44764;SDS011;30484;52.382;5.260;2023-08-24T03:13:33;19.55;;;12.25;;
44764;SDS011;30484;52.382;5.260;2023-08-24T03:16:04;19.48;;;11.60;;
44764;SDS011;30484;52.382;5.260;2023-08-24T03:18:34;20.92;;;11.45;;
44764;SDS011;30484;52.382;5.260;2023-08-24T03:21:04;20.13;;;11.40;;
44764;SDS011;30484;52.382;5.260;2023-08-24T03:23:33;17.55;;;10.82;;
44764;SDS011;30484;52.382;5.260;2023-08-24T03:26:02;17.98;;;10.93;;
44764;SDS011;30484;52.382;5.260;2023-08-24T03:28:30;17.05;;;11.45;;
44764;SDS011;30484;52.382;5.260;2023-08-24T03:30:58;18.35;;;11.18;;
44764;SDS011;30484;52.382;5.260;2023-08-24T03:33:28;16.98;;;10.65;;
44764;SDS011;30484;52.382;5.260;2023-08-24T03:35:57;18.20;;;11.85;;
44764;SDS011;30484;52.382;5.260;2023-08-24T03:38:27;21.75;;;11.70;;
44764;SDS011;30484;52.382;5.260;2023-08-24T03:40:59;16.70;;;11.20;;
44764;SDS011;30484;52.382;5.260;2023-08-24T03:43:30;19.83;;;10.85;;
44764;SDS011;30484;52.382;5.260;2023-08-24T03:46:01;20.98;;;11.20;;
44764;SDS011;30484;52.382;5.260;2023-08-24T03:48:30;18.08;;;10.68;;
44764;SDS011;30484;52.382;5.260;2023-08-24T03:50:59;21.48;;;11.77;;
44764;SDS011;30484;52.382;5.260;2023-08-24T03:53:30;22.30;;;11.60;;
44764;SDS011;30484;52.382;5.260;2023-08-24T03:55:58;21.70;;;11.55;;
44764;SDS011;30484;52.382;5.260;2023-08-24T03:58:27;19.13;;;11.10;;
44764;SDS011;30484;52.382;5.260;2023-08-24T04:00:56;22.35;;;11.57;;
44764;SDS011;30484;52.382;5.260;2023-08-24T04:03:25;18.02;;;10.48;;
44764;SDS011;30484;52.382;5.260;2023-08-24T04:05:53;17.20;;;10.27;;
44764;SDS011;30484;52.382;5.260;2023-08-24T04:08:21;21.65;;;11.48;;
44764;SDS011;30484;52.382;5.260;2023-08-24T04:10:51;19.13;;;10.35;;
44764;SDS011;30484;52.382;5.260;2023-08-24T04:13:20;16.70;;;10.50;;
44764;SDS011;30484;52.382;5.260;2023-08-24T04:15:48;22.00;;;10.07;;
44764;SDS011;30484;52.382;5.260;2023-08-24T04:18:17;15.75;;;10.80;;
44764;SDS011;30484;52.382;5.260;2023-08-24T04:20:45;15.80;;;9.45;;
44764;SDS011;30484;52.382;5.260;2023-08-24T04:23:14;17.23;;;10.23;;
44764;SDS011;30484;52.382;5.260;2023-08-24T04:25:42;16.88;;;10.25;;
44764;SDS011;30484;52.382;5.260;2023-08-24T04:28:12;20.70;;;9.88;;
44764;SDS011;30484;52.382;5.260;2023-08-24T04:30:43;14.63;;;10.32;;
44764;SDS011;30484;52.382;5.260;2023-08-24T04:33:18;21.02;;;10.68;;
44764;SDS011;30484;52.382;5.260;2023-08-24T04:35:47;16.90;;;9.35;;
44764;SDS011;30484;52.382;5.260;2023-08-24T04:38:15;17.45;;;10.88;;
44764;SDS011;30484;52.382;5.260;2023-08-24T04:40:50;18.90;;;10.70;;
44764;SDS011;30484;52.382;5.260;2023-08-24T04:43:22;17.50;;;10.57;;
44764;SDS011;30484;52.382;5.260;2023-08-24T04:45:52;23.70;;;11.65;;
44764;SDS011;30484;52.382;5.260;2023-08-24T04:48:22;18.30;;;12.00;;
44764;SDS011;30484;52.382;5.260;2023-08-24T04:50:52;19.75;;;10.95;;
44764;SDS011;30484;52.382;5.260;2023-08-24T04:53:22;18.20;;;11.10;;
44764;SDS011;30484;52.382;5.260;2023-08-24T04:55:51;20.20;;;12.02;;
44764;SDS011;30484;52.382;5.260;2023-08-24T04:58:20;17.77;;;10.82;;
44764;SDS011;30484;52.382;5.260;2023-08-24T05:00:50;20.40;;;11.27;;
44764;SDS011;30484;52.382;5.260;2023-08-24T05:03:19;19.63;;;11.55;;
44764;SDS011;30484;52.382;5.260;2023-08-24T05:05:50;24.15;;;10.95;;
44764;SDS011;30484;52.382;5.260;2023-08-24T05:08:19;17.33;;;10.90;;
44764;SDS011;30484;52.382;5.260;2023-08-24T05:10:47;25.42;;;10.82;;
44764;SDS011;30484;52.382;5.260;2023-08-24T05:13:19;19.63;;;10.88;;
44764;SDS011;30484;52.382;5.260;2023-08-24T05:15:48;18.83;;;10.50;;
44764;SDS011;30484;52.382;5.260;2023-08-24T05:18:17;14.65;;;10.20;;
44764;SDS011;30484;52.382;5.260;2023-08-24T05:20:45;16.73;;;11.52;;
44764;SDS011;30484;52.382;5.260;2023-08-24T05:23:13;19.02;;;12.07;;
44764;SDS011;30484;52.382;5.260;2023-08-24T05:25:42;19.70;;;12.15;;
44764;SDS011;30484;52.382;5.260;2023-08-24T05:28:11;20.50;;;12.07;;
44764;SDS011;30484;52.382;5.260;2023-08-24T05:30:39;18.73;;;11.32;;
44764;SDS011;30484;52.382;5.260;2023-08-24T05:33:09;18.23;;;11.40;;
44764;SDS011;30484;52.382;5.260;2023-08-24T05:35:38;21.90;;;12.02;;
44764;SDS011;30484;52.382;5.260;2023-08-24T05:38:06;17.27;;;11.32;;
44764;SDS011;30484;52.382;5.260;2023-08-24T05:40:34;22.05;;;11.60;;
44764;SDS011;30484;52.382;5.260;2023-08-24T05:43:03;24.70;;;11.55;;
44764;SDS011;30484;52.382;5.260;2023-08-24T05:45:32;18.60;;;11.18;;
44764;SDS011;30484;52.382;5.260;2023-08-24T05:48:00;18.38;;;11.35;;
44764;SDS011;30484;52.382;5.260;2023-08-24T05:50:31;17.67;;;10.48;;
44764;SDS011;30484;52.382;5.260;2023-08-24T05:52:59;18.90;;;11.20;;
44764;SDS011;30484;52.382;5.260;2023-08-24T05:55:28;16.70;;;11.23;;
44764;SDS011;30484;52.382;5.260;2023-08-24T05:57:56;18.92;;;11.23;;
44764;SDS011;30484;52.382;5.260;2023-08-24T06:00:24;23.02;;;11.52;;
44764;SDS011;30484;52.382;5.260;2023-08-24T06:02:53;19.15;;;11.15;;
44764;SDS011;30484;52.382;5.260;2023-08-24T06:05:21;18.85;;;9.95;;
44764;SDS011;30484;52.382;5.260;2023-08-24T06:07:51;16.38;;;9.63;;
44764;SDS011;30484;52.382;5.260;2023-08-24T06:10:21;16.92;;;10.35;;
44764;SDS011;30484;52.382;5.260;2023-08-24T06:12:49;20.25;;;11.02;;
44764;SDS011;30484;52.382;5.260;2023-08-24T06:15:18;17.98;;;9.30;;
44764;SDS011;30484;52.382;5.260;2023-08-24T06:17:50;22.90;;;8.90;;
44764;SDS011;30484;52.382;5.260;2023-08-24T06:20:19;15.00;;;8.75;;
44764;SDS011;30484;52.382;5.260;2023-08-24T06:22:47;13.65;;;8.10;;
44764;SDS011;30484;52.382;5.260;2023-08-24T06:25:21;17.33;;;9.27;;
44764;SDS011;30484;52.382;5.260;2023-08-24T06:27:49;13.45;;;8.70;;
44764;SDS011;30484;52.382;5.260;2023-08-24T06:30:18;15.43;;;8.63;;
44764;SDS011;30484;52.382;5.260;2023-08-24T06:32:47;15.73;;;9.32;;
44764;SDS011;30484;52.382;5.260;2023-08-24T06:35:15;18.42;;;9.85;;
44764;SDS011;30484;52.382;5.260;2023-08-24T06:37:44;20.10;;;9.88;;
44764;SDS011;30484;52.382;5.260;2023-08-24T06:40:14;11.98;;;9.07;;
44764;SDS011;30484;52.382;5.260;2023-08-24T06:42:48;15.63;;;8.63;;
44764;SDS011;30484;52.382;5.260;2023-08-24T06:45:17;18.13;;;8.80;;
44764;SDS011;30484;52.382;5.260;2023-08-24T06:47:45;15.95;;;8.68;;
44764;SDS011;30484;52.382;5.260;2023-08-24T06:50:14;16.10;;;9.55;;
44764;SDS011;30484;52.382;5.260;2023-08-24T06:52:43;16.48;;;8.50;;
44764;SDS011;30484;52.382;5.260;2023-08-24T06:55:11;16.98;;;8.40;;
44764;SDS011;30484;52.382;5.260;2023-08-24T06:57:40;12.40;;;9.43;;
44764;SDS011;30484;52.382;5.260;2023-08-24T07:00:13;16.33;;;8.88;;
44764;SDS011;30484;52.382;5.260;2023-08-24T07:02:51;14.35;;;9.43;;
44764;SDS011;30484;52.382;5.260;2023-08-24T07:05:19;19.65;;;9.85;;
44764;SDS011;30484;52.382;5.260;2023-08-24T07:07:49;16.90;;;9.98;;
44764;SDS011;30484;52.382;5.260;2023-08-24T07:10:18;15.48;;;9.57;;
44764;SDS011;30484;52.382;5.260;2023-08-24T07:12:46;19.02;;;10.00;;
44764;SDS011;30484;52.382;5.260;2023-08-24T07:15:16;15.43;;;9.70;;
44764;SDS011;30484;52.382;5.260;2023-08-24T07:17:45;18.20;;;10.00;;
44764;SDS011;30484;52.382;5.260;2023-08-24T07:20:14;17.52;;;10.32;;
44764;SDS011;30484;52.382;5.260;2023-08-24T07:22:43;15.07;;;9.20;;
44764;SDS011;30484;52.382;5.260;2023-08-24T07:25:11;18.23;;;9.65;;
44764;SDS011;30484;52.382;5.260;2023-08-24T07:27:41;15.45;;;10.00;;
44764;SDS011;30484;52.382;5.260;2023-08-24T07:30:10;15.90;;;9.27;;
44764;SDS011;30484;52.382;5.260;2023-08-24T07:32:59;18.05;;;8.93;;
44764;SDS011;30484;52.382;5.260;2023-08-24T07:35:29;14.27;;;9.20;;
44764;SDS011;30484;52.382;5.260;2023-08-24T07:37:58;17.60;;;8.65;;
44764;SDS011;30484;52.382;5.260;2023-08-24T07:40:27;16.30;;;10.10;;
44764;SDS011;30484;52.382;5.260;2023-08-24T07:42:56;17.92;;;9.23;;
44764;SDS011;30484;52.382;5.260;2023-08-24T07:45:24;15.20;;;9.40;;
44764;SDS011;30484;52.382;5.260;2023-08-24T07:47:54;15.45;;;9.55;;
44764;SDS011;30484;52.382;5.260;2023-08-24T07:50:24;16.45;;;9.52;;
44764;SDS011;30484;52.382;5.260;2023-08-24T07:52:52;17.60;;;10.80;;
44764;SDS011;30484;52.382;5.260;2023-08-24T07:55:23;16.63;;;9.55;;
44764;SDS011;30484;52.382;5.260;2023-08-24T07:57:52;17.98;;;9.98;;
44764;SDS011;30484;52.382;5.260;2023-08-24T08:00:20;16.17;;;10.48;;
44764;SDS011;30484;52.382;5.260;2023-08-24T08:02:50;15.07;;;9.32;;
44764;SDS011;30484;52.382;5.260;2023-08-24T08:05:19;19.10;;;10.05;;
44764;SDS011;30484;52.382;5.260;2023-08-24T08:07:50;15.38;;;9.88;;
44764;SDS011;30484;52.382;5.260;2023-08-24T08:10:19;19.23;;;9.77;;
44764;SDS011;30484;52.382;5.260;2023-08-24T08:12:48;16.58;;;9.63;;
44764;SDS011;30484;52.382;5.260;2023-08-24T08:15:16;22.02;;;10.35;;
44764;SDS011;30484;52.382;5.260;2023-08-24T08:17:45;16.92;;;9.98;;
44764;SDS011;30484;52.382;5.260;2023-08-24T08:20:14;19.08;;;9.95;;
44764;SDS011;30484;52.382;5.260;2023-08-24T08:22:43;17.55;;;9.95;;
44764;SDS011;30484;52.382;5.260;2023-08-24T08:25:13;16.77;;;8.98;;
44764;SDS011;30484;52.382;5.260;2023-08-24T08:27:44;18.15;;;9.60;;
44764;SDS011;30484;52.382;5.260;2023-08-24T08:30:12;14.02;;;9.80;;
44764;SDS011;30484;52.382;5.260;2023-08-24T08:32:42;15.07;;;9.52;;
44764;SDS011;30484;52.382;5.260;2023-08-24T08:35:10;14.68;;;8.55;;
44764;SDS011;30484;52.382;5.260;2023-08-24T08:37:39;14.27;;;7.97;;
44764;SDS011;30484;52.382;5.260;2023-08-24T08:40:09;14.65;;;8.50;;
44764;SDS011;30484;52.382;5.260;2023-08-24T08:42:41;17.10;;;8.55;;
44764;SDS011;30484;52.382;5.260;2023-08-24T08:45:10;17.10;;;8.60;;
44764;SDS011;30484;52.382;5.260;2023-08-24T08:47:38;16.35;;;8.55;;
44764;SDS011;30484;52.382;5.260;2023-08-24T08:50:08;15.80;;;7.88;;
44764;SDS011;30484;52.382;5.260;2023-08-24T08:52:46;15.93;;;8.50;;
44764;SDS011;30484;52.382;5.260;2023-08-24T08:55:15;14.88;;;7.68;;
44764;SDS011;30484;52.382;5.260;2023-08-24T08:57:47;17.05;;;8.23;;
44764;SDS011;30484;52.382;5.260;2023-08-24T09:00:24;15.20;;;7.80;;
44764;SDS011;30484;52.382;5.260;2023-08-24T09:02:54;17.40;;;7.93;;
44764;SDS011;30484;52.382;5.260;2023-08-24T09:05:25;15.07;;;8.25;;
44764;SDS011;30484;52.382;5.260;2023-08-24T09:07:54;14.73;;;7.85;;
44764;SDS011;30484;52.382;5.260;2023-08-24T09:10:31;17.85;;;8.18;;
44764;SDS011;30484;52.382;5.260;2023-08-24T09:13:01;12.30;;;7.63;;
44764;SDS011;30484;52.382;5.260;2023-08-24T09:15:32;14.50;;;7.97;;
44764;SDS011;30484;52.382;5.260;2023-08-24T09:18:03;13.75;;;8.10;;
44764;SDS011;30484;52.382;5.260;2023-08-24T09:20:38;15.30;;;7.00;;
44764;SDS011;30484;52.382;5.260;2023-08-24T09:23:12;11.68;;;7.50;;
44764;SDS011;30484;52.382;5.260;2023-08-24T09:25:46;16.10;;;8.00;;
44764;SDS011;30484;52.382;5.260;2023-08-24T09:28:21;15.70;;;7.82;;
44764;SDS011;30484;52.382;5.260;2023-08-24T09:30:59;14.45;;;7.50;;
44764;SDS011;30484;52.382;5.260;2023-08-24T09:33:29;12.80;;;7.55;;
44764;SDS011;30484;52.382;5.260;2023-08-24T09:36:01;18.73;;;7.60;;
44764;SDS011;30484;52.382;5.260;2023-08-24T09:41:19;13.77;;;7.93;;
44764;SDS011;30484;52.382;5.260;2023-08-24T09:43:49;14.73;;;7.63;;
44764;SDS011;30484;52.382;5.260;2023-08-24T09:46:18;18.80;;;7.95;;
44764;SDS011;30484;52.382;5.260;2023-08-24T09:48:53;13.90;;;8.43;;
44764;SDS011;30484;52.382;5.260;2023-08-24T09:51:23;17.97;;;8.33;;
44764;SDS011;30484;52.382;5.260;2023-08-24T09:53:54;16.95;;;8.30;;
44764;SDS011;30484;52.382;5.260;2023-08-24T09:56:27;14.50;;;7.88;;
44764;SDS011;30484;52.382;5.260;2023-08-24T09:58:58;19.20;;;8.88;;
44764;SDS011;30484;52.382;5.260;2023-08-24T10:01:33;14.65;;;8.35;;
44764;SDS011;30484;52.382;5.260;2023-08-24T10:04:04;15.00;;;7.70;;
44764;SDS011;30484;52.382;5.260;2023-08-24T10:06:34;13.52;;;8.30;;
44764;SDS011;30484;52.382;5.260;2023-08-24T10:09:07;16.23;;;8.48;;
44764;SDS011;30484;52.382;5.260;2023-08-24T10:11:40;18.00;;;8.40;;
44764;SDS011;30484;52.382;5.260;2023-08-24T10:14:23;13.82;;;7.95;;
44764;SDS011;30484;52.382;5.260;2023-08-24T10:16:58;14.95;;;7.20;;
44764;SDS011;30484;52.382;5.260;2023-08-24T10:19:27;11.95;;;7.15;;
44764;SDS011;30484;52.382;5.260;2023-08-24T10:21:56;14.88;;;7.65;;
44764;SDS011;30484;52.382;5.260;2023-08-24T10:24:28;13.90;;;8.05;;
44764;SDS011;30484;52.382;5.260;2023-08-24T10:26:57;14.15;;;8.20;;
44764;SDS011;30484;52.382;5.260;2023-08-24T10:29:53;14.10;;;7.05;;
44764;SDS011;30484;52.382;5.260;2023-08-24T10:32:21;15.07;;;8.35;;
44764;SDS011;30484;52.382;5.260;2023-08-24T10:35:00;20.95;;;8.95;;
44764;SDS011;30484;52.382;5.260;2023-08-24T10:37:29;13.90;;;8.15;;
44764;SDS011;30484;52.382;5.260;2023-08-24T10:40:00;19.33;;;8.05;;
44764;SDS011;30484;52.382;5.260;2023-08-24T10:42:42;14.65;;;8.18;;
44764;SDS011;30484;52.382;5.260;2023-08-24T10:45:19;17.30;;;8.20;;
44764;SDS011;30484;52.382;5.260;2023-08-24T10:47:51;12.95;;;7.95;;
44764;SDS011;30484;52.382;5.260;2023-08-24T10:50:21;17.73;;;7.65;;
44764;SDS011;30484;52.382;5.260;2023-08-24T10:52:50;18.05;;;9.55;;
44764;SDS011;30484;52.382;5.260;2023-08-24T10:55:22;17.05;;;9.07;;
44764;SDS011;30484;52.382;5.260;2023-08-24T10:57:56;23.48;;;9.43;;
44764;SDS011;30484;52.382;5.260;2023-08-24T11:00:28;17.33;;;10.35;;
44764;SDS011;30484;52.382;5.260;2023-08-24T11:02:58;17.83;;;11.00;;
44764;SDS011;30484;52.382;5.260;2023-08-24T11:05:33;20.05;;;10.77;;
44764;SDS011;30484;52.382;5.260;2023-08-24T11:08:03;17.05;;;11.27;;
44764;SDS011;30484;52.382;5.260;2023-08-24T11:10:34;22.83;;;11.38;;
44764;SDS011;30484;52.382;5.260;2023-08-24T11:13:16;20.17;;;11.85;;
44764;SDS011;30484;52.382;5.260;2023-08-24T11:15:50;23.27;;;11.98;;
44764;SDS011;30484;52.382;5.260;2023-08-24T11:18:24;20.20;;;10.50;;
44764;SDS011;30484;52.382;5.260;2023-08-24T11:20:55;19.55;;;11.35;;
44764;SDS011;30484;52.382;5.260;2023-08-24T11:23:28;24.90;;;11.93;;
44764;SDS011;30484;52.382;5.260;2023-08-24T11:25:57;19.98;;;11.77;;
44764;SDS011;30484;52.382;5.260;2023-08-24T11:28:27;19.42;;;12.02;;
44764;SDS011;30484;52.382;5.260;2023-08-24T11:30:58;21.52;;;12.07;;
44764;SDS011;30484;52.382;5.260;2023-08-24T11:33:34;22.52;;;12.75;;
44764;SDS011;30484;52.382;5.260;2023-08-24T11:36:03;22.25;;;13.45;;
44764;SDS011;30484;52.382;5.260;2023-08-24T11:38:36;24.38;;;14.13;;
44764;SDS011;30484;52.382;5.260;2023-08-24T11:41:14;23.35;;;12.35;;
44764;SDS011;30484;52.382;5.260;2023-08-24T11:43:44;21.33;;;12.20;;
44764;SDS011;30484;52.382;5.260;2023-08-24T11:46:16;24.13;;;11.63;;
44764;SDS011;30484;52.382;5.260;2023-08-24T11:48:45;16.40;;;10.13;;
44764;SDS011;30484;52.382;5.260;2023-08-24T11:51:14;15.77;;;9.93;;
44764;SDS011;30484;52.382;5.260;2023-08-24T11:54:01;17.15;;;10.55;;
44764;SDS011;30484;52.382;5.260;2023-08-24T11:56:30;15.60;;;10.45;;
44764;SDS011;30484;52.382;5.260;2023-08-24T11:58:59;16.50;;;10.13;;
44764;SDS011;30484;52.382;5.260;2023-08-24T12:01:29;46.00;;;14.93;;
44764;SDS011;30484;52.382;5.260;2023-08-24T12:03:58;23.13;;;10.60;;
44764;SDS011;30484;52.382;5.260;2023-08-24T12:06:26;23.35;;;9.85;;
44764;SDS011;30484;52.382;5.260;2023-08-24T12:08:55;16.10;;;10.82;;
44764;SDS011;30484;52.382;5.260;2023-08-24T12:11:24;17.10;;;10.98;;
44764;SDS011;30484;52.382;5.260;2023-08-24T12:13:54;17.95;;;11.35;;
44764;SDS011;30484;52.382;5.260;2023-08-24T12:16:22;18.73;;;10.02;;
44764;SDS011;30484;52.382;5.260;2023-08-24T12:18:53;16.85;;;9.82;;
44764;SDS011;30484;52.382;5.260;2023-08-24T12:21:23;18.88;;;11.65;;
44764;SDS011;30484;52.382;5.260;2023-08-24T12:23:55;20.42;;;11.50;;
44764;SDS011;30484;52.382;5.260;2023-08-24T12:26:32;18.02;;;11.05;;
44764;SDS011;30484;52.382;5.260;2023-08-24T12:29:03;22.13;;;12.32;;
44764;SDS011;30484;52.382;5.260;2023-08-24T12:31:34;16.27;;;10.95;;
44764;SDS011;30484;52.382;5.260;2023-08-24T12:34:05;17.35;;;12.13;;
44764;SDS011;30484;52.382;5.260;2023-08-24T12:36:42;18.67;;;11.98;;
44764;SDS011;30484;52.382;5.260;2023-08-24T12:39:11;21.85;;;11.70;;
44764;SDS011;30484;52.382;5.260;2023-08-24T12:41:40;20.98;;;10.98;;
44764;SDS011;30484;52.382;5.260;2023-08-24T12:44:08;19.23;;;11.23;;
44764;SDS011;30484;52.382;5.260;2023-08-24T12:46:46;17.80;;;10.55;;
44764;SDS011;30484;52.382;5.260;2023-08-24T12:49:16;20.90;;;11.75;;
44764;SDS011;30484;52.382;5.260;2023-08-24T12:51:44;18.90;;;12.02;;
44764;SDS011;30484;52.382;5.260;2023-08-24T12:54:13;18.15;;;11.82;;
44764;SDS011;30484;52.382;5.260;2023-08-24T12:56:42;19.55;;;12.82;;
44764;SDS011;30484;52.382;5.260;2023-08-24T12:59:10;23.17;;;12.32;;
44764;SDS011;30484;52.382;5.260;2023-08-24T13:01:39;18.27;;;12.20;;
44764;SDS011;30484;52.382;5.260;2023-08-24T13:04:08;17.75;;;12.15;;
44764;SDS011;30484;52.382;5.260;2023-08-24T13:06:38;20.38;;;12.23;;
44764;SDS011;30484;52.382;5.260;2023-08-24T13:09:06;17.73;;;11.63;;
44764;SDS011;30484;52.382;5.260;2023-08-24T13:11:36;14.82;;;11.15;;
44764;SDS011;30484;52.382;5.260;2023-08-24T13:14:04;16.63;;;11.85;;
44764;SDS011;30484;52.382;5.260;2023-08-24T13:16:32;20.05;;;11.02;;
44764;SDS011;30484;52.382;5.260;2023-08-24T13:19:01;20.77;;;11.75;;
44764;SDS011;30484;52.382;5.260;2023-08-24T13:21:29;18.23;;;10.60;;
44764;SDS011;30484;52.382;5.260;2023-08-24T13:23:59;21.38;;;11.02;;
44764;SDS011;30484;52.382;5.260;2023-08-24T13:26:27;15.52;;;11.13;;
44764;SDS011;30484;52.382;5.260;2023-08-24T13:28:56;18.42;;;11.32;;
44764;SDS011;30484;52.382;5.260;2023-08-24T13:31:24;18.83;;;11.23;;
44764;SDS011;30484;52.382;5.260;2023-08-24T13:33:52;16.27;;;10.38;;
44764;SDS011;30484;52.382;5.260;2023-08-24T13:36:21;13.55;;;10.90;;
44764;SDS011;30484;52.382;5.260;2023-08-24T13:38:49;15.68;;;10.45;;
44764;SDS011;30484;52.382;5.260;2023-08-24T13:41:20;17.80;;;11.15;;
44764;SDS011;30484;52.382;5.260;2023-08-24T13:43:48;23.48;;;11.38;;
44764;SDS011;30484;52.382;5.260;2023-08-24T13:46:16;16.52;;;10.70;;
44764;SDS011;30484;52.382;5.260;2023-08-24T13:48:45;16.55;;;11.40;;
44764;SDS011;30484;52.382;5.260;2023-08-24T13:51:13;19.17;;;11.05;;
44764;SDS011;30484;52.382;5.260;2023-08-24T13:53:41;20.30;;;11.20;;
44764;SDS011;30484;52.382;5.260;2023-08-24T13:56:10;16.20;;;10.70;;
44764;SDS011;30484;52.382;5.260;2023-08-24T13:58:40;13.35;;;9.35;;
44764;SDS011;30484;52.382;5.260;2023-08-24T14:01:08;18.77;;;9.48;;
44764;SDS011;30484;52.382;5.260;2023-08-24T14:03:37;16.33;;;9.10;;
44764;SDS011;30484;52.382;5.260;2023-08-24T14:06:06;15.75;;;8.70;;
44764;SDS011;30484;52.382;5.260;2023-08-24T14:08:34;17.25;;;9.48;;
44764;SDS011;30484;52.382;5.260;2023-08-24T14:11:02;14.95;;;8.75;;
44764;SDS011;30484;52.382;5.260;2023-08-24T14:13:30;21.00;;;11.20;;
44764;SDS011;30484;52.382;5.260;2023-08-24T14:16:00;16.02;;;9.57;;
44764;SDS011;30484;52.382;5.260;2023-08-24T14:18:28;17.02;;;11.23;;
44764;SDS011;30484;52.382;5.260;2023-08-24T14:20:57;19.80;;;10.60;;
44764;SDS011;30484;52.382;5.260;2023-08-24T14:23:25;14.57;;;10.23;;
44764;SDS011;30484;52.382;5.260;2023-08-24T14:25:53;14.75;;;9.77;;
44764;SDS011;30484;52.382;5.260;2023-08-24T14:28:22;14.98;;;10.00;;
44764;SDS011;30484;52.382;5.260;2023-08-24T14:30:51;16.77;;;10.30;;
44764;SDS011;30484;52.382;5.260;2023-08-24T14:33:21;16.58;;;10.60;;
44764;SDS011;30484;52.382;5.260;2023-08-24T14:35:50;18.17;;;11.95;;
44764;SDS011;30484;52.382;5.260;2023-08-24T14:38:19;20.27;;;13.40;;
44764;SDS011;30484;52.382;5.260;2023-08-24T14:41:08;17.95;;;11.88;;
44764;SDS011;30484;52.382;5.260;2023-08-24T14:43:37;19.23;;;10.88;;
44764;SDS011;30484;52.382;5.260;2023-08-24T14:46:13;20.83;;;12.02;;
44764;SDS011;30484;52.382;5.260;2023-08-24T14:48:43;22.52;;;12.55;;